METAR Data
IDs: Format: Raw Decoded Include TAF

Data at: 1335 UTC 14 Dec 2019

PAWI 141253Z AUTO 05008KT 6SM HZ CLR M17/M21 A2965 RMK SLP043 T11721206 TSNO PNO VIA AUTODIAL
PAWI 141153Z AUTO 05008KT 6SM HZ CLR M17/M20 A2965 RMK SLP040 T11671200 11167 21194 51013 TSNO PNO VIA AUTODIAL
PAWI 141053Z AUTO 06007KT 6SM HZ CLR M18/M21 A2964 RMK SLP039 T11781206 TSNO PNO VIA AUTODIAL
PAWI 140953Z AUTO 12006KT 6SM HZ CLR M19/M22 A2963 RMK UPB15E28SNB05E15 SLP034 T11891217 TSNO PNO VIA AUTODIAL
PAWI 140853Z AUTO 12005KT 6SM BR CLR M19/M21 A2961 RMK SLP028 T11891211 410781200 53014 TSNO PNO VIA AUTODIAL
PAWI 140753Z AUTO 14004KT 6SM HZ CLR M19/M22 A2959 RMK SLP022 T11891217 TSNO PNO VIA AUTODIAL
PAWI 140653Z AUTO 14006KT 6SM HZ CLR M19/M22 A2958 RMK SLP017 T11941222 TSNO PNO VIA AUTODIAL
PAWI 140553Z AUTO 14006KT 6SM HZ CLR M19/M22 A2957 RMK SLP014 I6000 T11941222 11183 21200 51021 TSNO PNO VIA AUTODIAL
PAWI 140453Z AUTO 15010KT 6SM HZ CLR M19/M22 A2955 RMK SLP008 T11941222 TSNO PNO VIA AUTODIAL
PAWI 140353Z AUTO 14009KT 6SM HZ CLR M19/M22 A2953 RMK SLP000 T11941222 TSNO PNO VIA AUTODIAL
PAWI 140332Z AUTO 14010KT 6SM BR FEW004 M20/M22 A2952 RMK T12001222 TSNO PNO VIA AUTODIAL
PAWI 140253Z AUTO 14014KT 6SM HZ OVC004 M19/M22 A2951 RMK SLP993 I3000 T11891217 53016 TSNO PNO VIA AUTODIAL
PAWI 140217Z AUTO 13012KT 6SM BR BKN004 M19/M22 A2949 RMK CIG 002V006 T11941217 TSNO PNO VIA AUTODIAL
PAWI 140205Z AUTO 14015KT 6SM BR BKN003 M19/M22 A2949 RMK T11941217 TSNO PNO VIA AUTODIAL
PAWI 140153Z AUTO 13013KT 6SM BR SCT003 M19/M22 A2948 RMK SLP985 I1000 T11941217 TSNO PNO VIA AUTODIAL
PAWI 140118Z AUTO 13015KT 6SM BR OVC003 M19/M21 A2948 RMK I1000 T11891211 TSNO PNO VIA AUTODIAL
PAWI 140057Z AUTO 13015KT 3SM HZ OVC004 M18/M21 A2948 RMK T11831211 TSNO PNO VIA AUTODIAL
PAWI 140053Z AUTO 13014KT 1 3/4SM BR OVC004 M18/M21 A2947 RMK SLP982 T11831206 TSNO PNO VIA AUTODIAL
PAWI 140049Z AUTO 13016KT 1 3/4SM BR OVC004 M18/M21 A2948 RMK TSNO PNO VIA AUTODIAL
PAWI 140006Z AUTO 13014KT 6SM HZ BKN004 M19/M22 A2947 RMK T11891217 TSNO PNO VIA AUTODIAL
PAWI 132353Z AUTO 13012KT 6SM BR SCT004 M19/M21 A2946 RMK UPB22E23SNB01E22B23E24 SLP977 I6003 T11891211 11094 21189 51006 TSNO PNO VIA AUTODIAL
PAWI 132351Z AUTO 13013KT 6SM BR SCT004 M19/M21 A2946 RMK UPB22E23SNB01E22B23E24 TSNO PNO VIA AUTODIAL
PAWI 132323Z AUTO 13012KT 5SM -SN BR BKN004 M18/M21 A2946 RMK UPB22E23SNB01E22B23 T11831206 TSNO PNO VIA AUTODIAL
PAWI 132253Z AUTO 12011KT 4SM BR OVC002 M18/M20 A2945 RMK SNE2155 SLP975 I1000 T11831200 TSNO PNO VIA AUTODIAL
PAWI 132249Z AUTO 13011KT 3SM BR OVC002 M18/M20 A2946 RMK SNE2155 I1000 TSNO PNO VIA AUTODIAL
PAWI 132246Z AUTO 13011KT 1 3/4SM BR OVC002 M18/M20 A2945 RMK SNE2155 I1000 T11831200 TSNO PNO VIA AUTODIAL
PAWI 132228Z AUTO 13012KT 3/4SM BR OVC003 M18/M21 A2945 RMK SNE2155 I1000 T11831206 TSNO PNO VIA AUTODIAL
PAWI 132214Z AUTO 12010KT 1 3/4SM BR OVC003 M19/M21 A2945 RMK SNE2155 T11891211 TSNO PNO VIA AUTODIAL
PAWI 132153Z AUTO 12011KT 5SM -SN BR BKN003 M19/M21 A2945 RMK SNB44 SLP974 I1000 T11891206 TSNO PNO VIA AUTODIAL
PAWI 132115Z AUTO 11005KT 6SM BR OVC003 M17/M19 A2944 RMK CIG 002V006 I1000 T11721194 TSNO PNO VIA AUTODIAL
PAWI 132053Z AUTO 12006KT 6SM BR OVC004 M17/M18 A2944 RMK SNB15E26 SLP971 I1001 I3003 T11671183 53003 TSNO PNO VIA AUTODIAL
PAWI 132051Z AUTO 12006KT 6SM BR BKN004 M17/M18 A2944 RMK SNB15E26 I1001 TSNO PNO VIA AUTODIAL
PAWI 132030Z AUTO 08005KT 6SM BR BKN002 M16/M17 A2943 RMK SNB15E26 I1001 T11561172 TSNO PNO VIA AUTODIAL
PAWI 132023Z AUTO 09007KT 2 1/2SM -SN BR OVC002 M15/M17 A2943 RMK SNB15 I1001 T11501167 TSNO PNO VIA AUTODIAL
PAWI 131953Z AUTO 11010KT 1/4SM FZFG VV002 M15/M17 A2943 RMK FZRAB22E27SNB27E38 SLP969 I1002 T11501172 TSNO PNO VIA AUTODIAL
PAWI 131853Z AUTO 07006KT 1/4SM FZFG VV002 M10/M12 A2942 RMK SNB21E42 SLP965 I1000 T11001117 TSNO PNO VIA AUTODIAL
PAWI 131753Z AUTO 08004KT 1/4SM FZFG VV002 M09/M11 A2943 RMK SLP968 I1000 I6001 T10941111 11078 21094 56008 TSNO PNO VIA AUTODIAL
PAWI 131653Z AUTO 11005KT 1/4SM FZFG VV002 M09/M11 A2944 RMK SLP971 T10891106 TSNO PNO VIA AUTODIAL
PAWI 131553Z AUTO 06005KT 1/2SM FZFG VV002 M08/M10 A2944 RMK SLP971 I1001 T10781100 TSNO PNO VIA AUTODIAL
PAWI 131453Z AUTO 05004KT 1/2SM FZFG VV002 M08/M10 A2946 RMK SLP976 I1000 I3000 T10781100 56007 TSNO PNO VIA AUTODIAL
PAWI 131450Z AUTO 06005KT 1/2SM FZFG VV002 M08/M10 A2946 RMK I1000 TSNO PNO VIA AUTODIAL
PAWI 131407Z AUTO 08003KT 1 3/4SM BR OVC002 M08/M10 A2946 RMK T10781100 TSNO PNO VIA AUTODIAL
PAWI 131353Z AUTO 00000KT 3SM BR OVC002 M08/M09 A2947 RMK SNE13 SLP980 T10781094 TSNO PNO VIA AUTODIAL
PAWI 131326Z AUTO 06004KT 4SM BR OVC002 M08/M10 A2947 RMK SNE13 T10781100 TSNO PNO VIA AUTODIAL
PAWI 131253Z AUTO 07004KT 2 1/2SM -SN BR OVC002 M08/M11 A2948 RMK SNB15 SLP984 T10831106 TSNO PNO VIA AUTODIAL
PAWI 131251Z AUTO 08004KT 2 1/2SM -SN BR OVC002 M08/M11 A2948 RMK SNB15 TSNO PNO VIA AUTODIAL
PAWI 131158Z AUTO 08003KT 3SM HZ OVC003 M08/M11 A2949 RMK T10831111 TSNO PNO VIA AUTODIAL
PAWI 131153Z AUTO 09003KT 1 3/4SM BR OVC003 M09/M11 A2949 RMK SNB10E33 SLP988 I6000 T10891111 11089 21128 55003 TSNO PNO VIA AUTODIAL
PAWI 131151Z AUTO 10003KT 1 1/2SM BR OVC003 M09/M11 A2949 RMK SNB10E33 TSNO PNO VIA AUTODIAL
PAWI 131053Z AUTO 00000KT 3/4SM BR VV002 M09/M12 A2950 RMK SNE30 SLP989 T10941117 TSNO PNO VIA AUTODIAL
PAWI 130953Z AUTO 13003KT 1/2SM -SN FZFG VV003 M11/M12 A2950 RMK SNB33 SLP991 T11061122 TSNO PNO VIA AUTODIAL
PAWI 130853Z AUTO 15003KT 1/4SM FZFG VV002 M12/M13 A2952 RMK SLP997 I3000 T11171133 410671128 56007 TSNO PNO VIA AUTODIAL
PAWI 130753Z AUTO 16004KT 1/4SM FZFG VV002 M12/M14 A2952 RMK SNB19E47 SLP997 I1000 T11221139 TSNO PNO VIA AUTODIAL
PAWI 130653Z AUTO 15003KT 1/4SM FZFG VV002 M12/M14 A2953 RMK SNB0557E07 SLP000 T11221139 TSNO PNO VIA AUTODIAL
PAWI 130553Z AUTO 00000KT 1/4SM FZFG VV002 M13/M14 A2954 RMK SLP004 I1001 I6003 T11281144 11106 21128 56009 TSNO PNO VIA AUTODIAL
PAWI 130537Z AUTO 07003KT 3/4SM BR VV002 M13/M15 A2954 RMK I1001 T11281150 TSNO PNO VIA AUTODIAL
PAWI 130529Z AUTO 08004KT 2 1/2SM BR OVC002 M13/M15 A2954 RMK I1001 T11281150 TSNO PNO VIA AUTODIAL
PAWI 130453Z AUTO 07004KT 1/4SM HZ VV002 M12/M14 A2954 RMK SLP005 I1000 T11171144 TSNO PNO VIA AUTODIAL
PAWI 130353Z AUTO 11003KT 1/4SM FZFG VV002 M12/M14 A2955 RMK SLP008 I1000 T11221139 TSNO PNO VIA AUTODIAL
PAWI 130308Z AUTO 09004KT 1/2SM FZFG VV003 M12/M14 A2957 RMK T11171139 TSNO PNO VIA AUTODIAL
PAWI 130253Z AUTO 08005KT 1SM BR OVC003 M12/M14 A2957 RMK SLP013 I1001 I3002 T11221139 56003 TSNO PNO VIA AUTODIAL
PAWI 130251Z AUTO 08005KT 1SM BR OVC003 M12/M14 A2957 RMK I1001 TSNO PNO VIA AUTODIAL
PAWI 130153Z AUTO 10009KT 1/2SM FZFG VV002 M11/M13 A2956 RMK SLP012 I1001 T11111133 TSNO PNO VIA AUTODIAL